TISTTJSJ

Guest
Details From TIST - St Thomas - Cyril E King
To TJSJ - San Juan - Luis Munoz Marin Intl
Flight Number -
Tags Generated
Created
Modified
Stats Distance 59 nm / 109 km
Max Altitude 0 ft / 0 m
Waypoints 2
Social Downloads 6
Likes 0
Share VATSIM

Download

Looking for another format? Having issues loading an existing format? Contact us
Advertisement - Login to hide

Notes

Generated

Route

TIST TJSJ

ID Type Via Altitude Latitude Longitude Leg Dist Tot Dist Heading (true) Name
O TIST APT - 0 ft / 0 m 18.33687˚ -64.98343˚ - 0 nm - -
O TJSJ APT - 0 ft / 0 m 18.43356˚ -66.01373˚ 59 nm 59 nm 276° / 275° -

Altitude Profile

Advertisement - Login to hide

TIST

Details ICAO TIST (STT)
Name St Thomas - Cyril E King
Region USA (U.S. Virgin Islands)
Timezone Unknown (UTC+0.0)
Stats Elevation 23 ft / 7 m (AMSL)
Location 18.337300° -64.973344°
Runways 1
Magnetic Variation 13.636° W

METAR

TIST 151553Z 10012G20KT 10SM FEW030 30/21 A3008

Decode

TAF

TAF TIST 151132Z 1512/1612 06009KT P6SM FEW030 FM151400 09012G18KT P6SM FEW025 FM152200 07009KT P6SM FEW030

Decode

Departure Runways

ID Width Length Bearing (true) Bearing (mag) Surface Threshold Offset Overrun Length
10 151 ft / 46 m 6,992 ft / 2,131 m 87.44° 101.08° Asphalt 0 ft / 0 m 200 ft / 61 m
28 151 ft / 46 m 6,992 ft / 2,131 m 267.44° 281.08° Asphalt 2,300 ft / 701 m 200 ft / 61 m

TJSJ

Details ICAO TJSJ (SJU)
Name San Juan - Luis Munoz Marin Intl
Region USA (Puerto Rico)
Timezone America/Puerto_Rico (UTC-4.0)
Stats Elevation 9 ft / 3 m (AMSL)
Location 18.438777° -66.002018°
Runways 2
Magnetic Variation 13.222° W

METAR

TJSJ 151556Z 07012KT 10SM SCT032 28/23 A3009

Decode

TAF

TAF TJSJ 151132Z 1512/1612 VRB03KT P6SM FEW025 SCT035 FM151400 07015G20KT P6SM VCSH SCT030 FM152300 08010KT P6SM FEW025

Decode

Destination Runways

ID Width Length Bearing (true) Bearing (mag) Surface Threshold Offset Overrun Length
08 200 ft / 61 m 9,781 ft / 2,981 m 66.87° 80.09° Asphalt 0 ft / 0 m 200 ft / 61 m
10 151 ft / 46 m 8,007 ft / 2,440 m 90.14° 103.36° Concrete 0 ft / 0 m 200 ft / 61 m
26 200 ft / 61 m 9,781 ft / 2,981 m 246.88° 260.10° Asphalt 0 ft / 0 m 230 ft / 70 m
28 151 ft / 46 m 8,007 ft / 2,440 m 270.15° 283.37° Concrete 0 ft / 0 m 200 ft / 61 m

Approach Navaids

Runway Type Ident Frequency Range Bearing (true) Bearing (mag) Slope Elevation
08 Localiser ISJU 110.30 MHz 18 nm / 33 km 66.88° 80.10° - 5 ft / 2 m (AMSL)
08 Glidescope ISJU 110.30 MHz 10 nm / 19 km 66.87° 80.09° 3.00° 9 ft / 3 m (AMSL)
10 Localiser ICLA 109.70 MHz 18 nm / 33 km 90.15° 103.37° - 9 ft / 3 m (AMSL)
10 Glidescope ICLA 109.70 MHz 10 nm / 19 km 90.14° 103.37° 3.00° 8 ft / 2 m (AMSL)

Popular Alternatives